createdAt,value
2023-04-16T00:02:11.532Z,20.93
2023-04-16T00:04:41.392Z,21.13
2023-04-16T00:07:11.186Z,21.14
2023-04-16T00:09:40.836Z,21.17
2023-04-16T00:12:10.495Z,21.19
2023-04-16T00:14:40.083Z,21.17
2023-04-16T00:17:09.766Z,21.18
2023-04-16T00:19:39.515Z,21.22
2023-04-16T00:22:09.198Z,21.19
2023-04-16T00:24:38.807Z,21.17
2023-04-16T00:27:08.964Z,21.13
2023-04-16T00:29:38.585Z,21.17
2023-04-16T00:32:11.766Z,21.19
2023-04-16T00:34:41.374Z,21.20
2023-04-16T00:37:11.067Z,21.29
2023-04-16T00:39:40.719Z,21.20
2023-04-16T00:42:10.323Z,21.16
2023-04-16T00:44:39.999Z,21.23
2023-04-16T00:47:09.686Z,21.20
2023-04-16T00:49:39.320Z,21.27
2023-04-16T00:52:09.060Z,21.16
2023-04-16T00:54:38.668Z,21.30
2023-04-16T00:57:09.177Z,21.17
2023-04-16T00:59:38.827Z,21.08
2023-04-16T01:02:08.916Z,21.26
2023-04-16T01:04:38.683Z,21.29
2023-04-16T01:07:08.398Z,21.22
2023-04-16T01:09:38.056Z,21.26
2023-04-16T01:12:07.774Z,21.23
2023-04-16T01:14:37.959Z,21.31
2023-04-16T01:17:07.686Z,21.36
2023-04-16T01:19:40.160Z,21.23
2023-04-16T01:22:09.780Z,21.30
2023-04-16T01:24:39.891Z,21.24
2023-04-16T01:27:09.582Z,21.20
2023-04-16T01:29:39.277Z,21.16
2023-04-16T01:32:09.095Z,21.27
2023-04-16T01:34:39.081Z,21.30
2023-04-16T01:37:08.757Z,21.27
2023-04-16T01:39:38.389Z,21.30
2023-04-16T01:42:08.065Z,21.24
2023-04-16T01:44:37.721Z,21.27
2023-04-16T01:47:07.418Z,21.25
2023-04-16T01:49:38.009Z,21.25
2023-04-16T01:52:09.973Z,21.28
2023-04-16T01:54:39.624Z,21.28
2023-04-16T01:57:09.249Z,21.36
2023-04-16T01:59:39.295Z,21.23
2023-04-16T02:02:16.110Z,21.31
2023-04-16T02:04:47.156Z,21.31
2023-04-16T02:07:17.177Z,21.34
2023-04-16T02:09:47.046Z,21.27
2023-04-16T02:12:16.988Z,21.36
2023-04-16T02:14:46.643Z,21.33
2023-04-16T02:17:17.190Z,21.26
2023-04-16T02:19:46.840Z,21.28
2023-04-16T02:22:16.726Z,21.32
2023-04-16T02:24:46.390Z,21.32
2023-04-16T02:27:16.054Z,21.35
2023-04-16T02:29:45.767Z,21.36
2023-04-16T02:32:15.481Z,21.35
2023-04-16T02:34:45.102Z,21.45
2023-04-16T02:37:16.837Z,21.38
2023-04-16T02:39:46.653Z,21.36
2023-04-16T02:42:17.217Z,21.35
2023-04-16T02:44:46.945Z,21.50
2023-04-16T02:47:16.569Z,21.47
2023-04-16T02:49:46.339Z,21.33
2023-04-16T02:52:15.939Z,21.36
2023-04-16T02:54:45.572Z,21.41
2023-04-16T02:57:15.225Z,21.32
2023-04-16T02:59:44.839Z,21.30
2023-04-16T03:02:15.477Z,21.41
2023-04-16T03:04:48.340Z,21.44
2023-04-16T03:07:19.826Z,21.32
2023-04-16T03:09:49.461Z,21.38
2023-04-16T03:12:19.138Z,21.52
2023-04-16T03:14:48.773Z,21.48
2023-04-16T03:17:18.505Z,21.39
2023-04-16T03:19:48.249Z,21.52
2023-04-16T03:22:17.855Z,21.41
2023-04-16T03:24:47.527Z,21.53
2023-04-16T03:27:17.201Z,21.38
2023-04-16T03:29:46.843Z,21.36
2023-04-16T03:32:16.613Z,21.44
2023-04-16T03:34:46.331Z,21.43
2023-04-16T03:37:15.986Z,21.40
2023-04-16T03:39:45.602Z,21.47
2023-04-16T03:42:16.446Z,21.44
2023-04-16T03:44:46.986Z,21.39
2023-04-16T03:47:16.639Z,21.47
2023-04-16T03:49:46.297Z,21.41
2023-04-16T03:52:15.943Z,21.47
2023-04-16T03:54:45.635Z,21.45
2023-04-16T03:57:15.241Z,21.44
2023-04-16T03:59:44.907Z,21.47
2023-04-16T04:02:14.643Z,21.44
2023-04-16T04:04:44.427Z,21.38
2023-04-16T04:07:14.077Z,21.44
2023-04-16T04:09:43.783Z,21.48
2023-04-16T04:12:13.415Z,21.46
2023-04-16T04:14:43.204Z,21.49
2023-04-16T04:17:12.883Z,21.45
2023-04-16T04:19:50.660Z,21.42
2023-04-16T04:22:24.230Z,21.42
2023-04-16T04:24:53.827Z,21.33
2023-04-16T04:27:23.478Z,21.42
2023-04-16T04:29:53.129Z,21.48
2023-04-16T04:32:22.790Z,21.44
2023-04-16T04:34:52.664Z,21.46
2023-04-16T04:37:22.634Z,21.43
2023-04-16T04:39:52.318Z,21.37
2023-04-16T04:42:22.754Z,21.38
2023-04-16T04:44:52.407Z,21.59
2023-04-16T04:47:22.078Z,21.58
2023-04-16T04:49:51.730Z,21.49
2023-04-16T04:52:22.074Z,21.55
2023-04-16T04:54:51.730Z,21.45
2023-04-16T04:57:21.448Z,21.52
2023-04-16T04:59:52.617Z,21.44
2023-04-16T05:02:22.526Z,21.44
2023-04-16T05:04:52.405Z,21.50
2023-04-16T05:07:23.109Z,21.57
2023-04-16T05:09:53.490Z,21.50
2023-04-16T05:12:23.129Z,21.44
2023-04-16T05:14:55.801Z,21.49
2023-04-16T05:17:25.491Z,21.54
2023-04-16T05:19:55.169Z,21.51
2023-04-16T05:22:24.893Z,21.47
2023-04-16T05:24:54.535Z,21.46
2023-04-16T05:27:24.145Z,21.39
2023-04-16T05:29:53.812Z,21.52
2023-04-16T05:32:26.189Z,21.57
2023-04-16T05:34:55.948Z,21.45
2023-04-16T05:37:25.624Z,21.42
2023-04-16T05:39:55.233Z,21.41
2023-04-16T05:42:24.898Z,21.51
2023-04-16T05:44:54.632Z,21.46
2023-04-16T05:47:24.283Z,21.43
2023-04-16T05:49:54.019Z,21.46
2023-04-16T05:52:23.635Z,21.47
2023-04-16T05:54:54.171Z,21.48
2023-04-16T05:57:24.054Z,21.48
2023-04-16T05:59:53.727Z,21.52
2023-04-16T06:02:23.505Z,21.46
2023-04-16T06:04:53.257Z,21.41
2023-04-16T06:07:23.110Z,21.48
2023-04-16T06:09:52.783Z,21.56
2023-04-16T06:12:22.817Z,21.57
2023-04-16T06:14:52.443Z,21.44
2023-04-16T06:17:22.956Z,21.51
2023-04-16T06:19:52.593Z,21.52
2023-04-16T06:22:22.300Z,21.55
2023-04-16T06:24:52.241Z,21.52
2023-04-16T06:27:21.890Z,21.52
2023-04-16T06:29:52.236Z,21.40
2023-04-16T06:32:22.157Z,21.55
2023-04-16T06:34:51.832Z,21.46
2023-04-16T06:37:21.447Z,21.44
2023-04-16T06:39:51.113Z,21.57
2023-04-16T06:42:20.773Z,21.48
2023-04-16T06:44:50.423Z,21.58
2023-04-16T06:47:20.088Z,21.45
2023-04-16T06:49:49.749Z,21.47
2023-04-16T06:52:19.356Z,21.56
2023-04-16T06:54:49.724Z,21.44
2023-04-16T06:57:19.378Z,21.44
2023-04-16T06:59:48.989Z,21.62
2023-04-16T07:02:18.885Z,21.53
2023-04-16T07:04:48.630Z,21.40
2023-04-16T07:07:18.279Z,21.48
2023-04-16T07:09:47.958Z,21.42
2023-04-16T07:12:17.707Z,21.37
2023-04-16T07:14:47.403Z,21.48
2023-04-16T07:17:17.029Z,21.45
2023-04-16T07:19:47.241Z,21.55
2023-04-16T07:22:17.309Z,21.53
2023-04-16T07:24:46.928Z,21.47
2023-04-16T07:27:16.596Z,21.41
2023-04-16T07:29:47.449Z,21.49
2023-04-16T07:32:17.086Z,21.49
2023-04-16T07:34:46.961Z,21.50
2023-04-16T07:37:16.576Z,21.56
2023-04-16T07:39:46.189Z,21.41
2023-04-16T07:42:16.036Z,21.50
2023-04-16T07:44:46.417Z,21.52
2023-04-16T07:47:16.054Z,21.47
2023-04-16T07:49:45.661Z,21.48
2023-04-16T07:52:15.520Z,21.47
2023-04-16T07:54:45.169Z,21.41
2023-04-16T07:57:14.827Z,21.35
2023-04-16T07:59:45.367Z,21.45
2023-04-16T08:02:16.652Z,21.42
2023-04-16T08:04:46.624Z,21.40
2023-04-16T08:07:16.384Z,21.51
2023-04-16T08:09:55.102Z,21.44
2023-04-16T08:12:24.873Z,21.43
2023-04-16T08:14:54.582Z,21.44
2023-04-16T08:17:24.248Z,21.41
2023-04-16T08:19:53.894Z,21.38
2023-04-16T08:22:25.141Z,21.42
2023-04-16T08:24:54.999Z,21.38
2023-04-16T08:27:24.621Z,21.41
2023-04-16T08:29:54.252Z,21.50
2023-04-16T08:32:23.971Z,21.51
2023-04-16T08:34:53.687Z,21.38
2023-04-16T08:37:23.319Z,21.49
2023-04-16T08:39:52.930Z,21.45
2023-04-16T08:42:38.548Z,21.42
2023-04-16T08:45:18.912Z,21.41
2023-04-16T08:47:50.052Z,21.43
2023-04-16T08:50:28.148Z,21.40
2023-04-16T08:53:08.499Z,21.30
2023-04-16T08:55:50.557Z,21.35
2023-04-16T08:58:24.721Z,21.52
2023-04-16T09:00:54.387Z,21.45
2023-04-16T09:03:24.166Z,21.37
2023-04-16T09:05:53.841Z,21.39
2023-04-16T09:08:23.623Z,21.35
2023-04-16T09:10:53.439Z,21.34
2023-04-16T09:13:23.895Z,21.46
2023-04-16T09:15:58.526Z,21.35
2023-04-16T09:18:29.642Z,21.31
2023-04-16T09:20:59.287Z,21.33
2023-04-16T09:23:28.915Z,21.41
2023-04-16T09:26:00.905Z,21.39
2023-04-16T09:28:50.237Z,21.35
2023-04-16T09:31:21.137Z,21.35
2023-04-16T09:34:07.004Z,21.29
2023-04-16T09:36:37.013Z,21.27
2023-04-16T09:39:06.799Z,21.30
2023-04-16T09:41:41.110Z,21.34
2023-04-16T09:44:10.904Z,21.22
2023-04-16T09:46:43.629Z,21.27
2023-04-16T09:49:19.909Z,21.35
2023-04-16T09:51:54.347Z,21.21
2023-04-16T09:54:23.976Z,21.24
2023-04-16T09:56:53.646Z,21.21
2023-04-16T09:59:23.924Z,21.19
2023-04-16T10:01:57.275Z,21.30
2023-04-16T10:04:55.389Z,21.22
2023-04-16T10:07:25.405Z,21.28
2023-04-16T10:09:55.035Z,21.28
2023-04-16T10:12:24.667Z,21.21
2023-04-16T10:14:54.247Z,21.18
2023-04-16T10:17:25.254Z,21.23
2023-04-16T10:19:54.955Z,21.17
2023-04-16T10:22:24.601Z,21.24
2023-04-16T10:24:54.809Z,21.20
2023-04-16T10:27:24.535Z,21.25
2023-04-16T10:29:54.180Z,21.25
2023-04-16T10:32:23.850Z,21.17
2023-04-16T10:34:53.495Z,21.13
2023-04-16T10:37:30.946Z,21.21
2023-04-16T10:40:06.419Z,21.14
2023-04-16T10:42:36.159Z,21.18
2023-04-16T10:45:05.895Z,21.12
2023-04-16T10:47:35.587Z,21.08
2023-04-16T10:50:06.522Z,21.07
2023-04-16T10:52:36.169Z,21.14
2023-04-16T10:55:05.877Z,21.13
2023-04-16T10:57:35.519Z,21.18
2023-04-16T11:00:05.679Z,21.10
2023-04-16T11:02:35.656Z,20.96
2023-04-16T11:05:05.660Z,20.87
2023-04-16T11:07:36.419Z,20.88
2023-04-16T11:10:06.884Z,20.94
2023-04-16T11:12:49.894Z,20.88
2023-04-16T11:15:23.498Z,20.88
2023-04-16T11:17:54.102Z,20.85
2023-04-16T11:20:28.364Z,20.84
2023-04-16T11:22:59.057Z,20.87
2023-04-16T11:25:33.512Z,20.88
2023-04-16T11:28:05.107Z,20.85
2023-04-16T11:30:36.076Z,20.82
2023-04-16T11:33:12.842Z,20.82
2023-04-16T11:35:42.827Z,20.84
2023-04-16T11:38:12.492Z,20.85
2023-04-16T11:40:42.232Z,20.82
2023-04-16T11:43:18.651Z,20.86
2023-04-16T11:46:24.097Z,20.80
2023-04-16T11:48:59.862Z,20.80
2023-04-16T11:51:29.487Z,20.80
2023-04-16T11:54:00.246Z,20.79
2023-04-16T11:56:34.940Z,20.77
2023-04-16T11:59:15.310Z,20.76
2023-04-16T12:01:49.815Z,20.82
2023-04-16T12:04:23.368Z,20.81
2023-04-16T12:07:17.213Z,20.82
2023-04-16T12:09:46.987Z,20.77
2023-04-16T12:12:32.870Z,20.77
2023-04-16T12:15:05.827Z,20.78
2023-04-16T12:17:36.616Z,20.73
2023-04-16T12:20:13.530Z,20.81
2023-04-16T12:22:54.302Z,20.81
2023-04-16T12:25:23.903Z,20.80
2023-04-16T12:27:54.869Z,20.75
2023-04-16T12:30:25.343Z,20.79
2023-04-16T12:32:58.681Z,20.78
2023-04-16T12:35:33.213Z,20.78
2023-04-16T12:38:03.194Z,20.73
2023-04-16T12:40:33.027Z,20.76
2023-04-16T12:43:02.722Z,20.76
2023-04-16T12:45:32.438Z,20.77
2023-04-16T12:48:02.242Z,20.75
2023-04-16T12:50:31.977Z,20.80
2023-04-16T12:53:01.728Z,20.72
2023-04-16T12:55:31.364Z,20.79
2023-04-16T12:58:01.077Z,20.79
2023-04-16T13:00:30.814Z,20.74
2023-04-16T13:03:00.617Z,20.73
2023-04-16T13:05:30.315Z,20.72
2023-04-16T13:07:59.939Z,20.74
2023-04-16T13:10:29.675Z,20.85
2023-04-16T13:12:59.254Z,20.74
2023-04-16T13:15:28.952Z,20.75
2023-04-16T13:17:58.683Z,20.75
2023-04-16T13:20:28.470Z,20.76
2023-04-16T13:22:58.287Z,20.73
2023-04-16T13:25:27.984Z,20.81
2023-04-16T13:27:57.678Z,20.75
2023-04-16T13:30:27.799Z,20.76
2023-04-16T13:33:00.452Z,20.76
2023-04-16T13:35:30.901Z,20.72
2023-04-16T13:38:00.574Z,20.72
2023-04-16T13:40:30.278Z,20.74
2023-04-16T13:42:59.928Z,20.75
2023-04-16T13:45:29.642Z,20.72
2023-04-16T13:47:59.398Z,20.74
2023-04-16T13:50:29.127Z,20.68
2023-04-16T13:52:58.818Z,20.71
2023-04-16T13:55:28.486Z,20.67
2023-04-16T13:57:58.128Z,20.67
2023-04-16T14:00:29.034Z,20.73
2023-04-16T14:02:58.895Z,20.75
2023-04-16T14:05:28.980Z,20.70
2023-04-16T14:07:58.602Z,20.70
2023-04-16T14:10:28.275Z,20.68
2023-04-16T14:12:57.874Z,20.72
2023-04-16T14:15:29.046Z,20.64
2023-04-16T14:17:58.766Z,20.72
2023-04-16T14:20:28.463Z,20.70
2023-04-16T14:22:58.674Z,20.73
2023-04-16T14:25:28.673Z,20.69
2023-04-16T14:27:58.398Z,20.70
2023-04-16T14:30:28.096Z,20.72
2023-04-16T14:32:57.809Z,20.67
2023-04-16T14:35:28.087Z,20.63
2023-04-16T14:37:58.277Z,20.69
2023-04-16T14:40:28.033Z,20.65
2023-04-16T14:42:57.753Z,20.63
2023-04-16T14:45:30.499Z,20.64
2023-04-16T14:48:00.255Z,20.63
2023-04-16T14:50:29.875Z,20.65
2023-04-16T14:52:59.547Z,20.60
2023-04-16T14:55:29.208Z,20.60
2023-04-16T14:57:58.902Z,20.63
2023-04-16T15:00:28.919Z,20.64
2023-04-16T15:02:59.130Z,20.65
2023-04-16T15:05:28.929Z,20.62
2023-04-16T15:07:58.559Z,20.65
2023-04-16T15:10:28.235Z,20.61
2023-04-16T15:12:57.922Z,20.65
2023-04-16T15:15:27.654Z,20.56
2023-04-16T15:17:58.472Z,20.62
2023-04-16T15:20:28.580Z,20.60
2023-04-16T15:22:58.428Z,20.58
2023-04-16T15:25:28.174Z,20.58
2023-04-16T15:27:57.927Z,20.61
2023-04-16T15:30:27.675Z,20.56
2023-04-16T15:32:57.647Z,20.64
2023-04-16T15:35:27.354Z,20.60
2023-04-16T15:37:57.072Z,20.61
2023-04-16T15:40:27.436Z,20.56
2023-04-16T15:42:58.055Z,20.59
2023-04-16T15:45:27.962Z,20.56
2023-04-16T15:48:00.739Z,20.57
2023-04-16T15:50:30.503Z,20.58
2023-04-16T15:53:00.118Z,20.53
2023-04-16T15:55:29.836Z,20.50
2023-04-16T15:57:59.477Z,20.54
2023-04-16T16:00:29.558Z,20.58
2023-04-16T16:02:59.696Z,20.51
2023-04-16T16:05:29.498Z,20.55
2023-04-16T16:08:00.090Z,20.58
2023-04-16T16:10:29.766Z,20.54
2023-04-16T16:12:59.456Z,20.57
2023-04-16T16:15:29.119Z,20.54
2023-04-16T16:17:59.499Z,20.52
2023-04-16T16:20:29.517Z,20.54
2023-04-16T16:22:59.542Z,20.55
2023-04-16T16:25:29.268Z,20.52
2023-04-16T16:28:00.302Z,20.53
2023-04-16T16:30:29.976Z,20.50
2023-04-16T16:32:59.721Z,20.56
2023-04-16T16:35:29.371Z,20.56
2023-04-16T16:38:00.150Z,20.56
2023-04-16T16:40:30.188Z,20.55
2023-04-16T16:42:59.940Z,20.55
2023-04-16T16:45:30.236Z,20.52
2023-04-16T16:48:05.121Z,20.50
2023-04-16T16:50:35.059Z,20.47
2023-04-16T16:53:04.969Z,20.52
2023-04-16T16:55:34.570Z,20.46
2023-04-16T16:58:04.991Z,20.52
2023-04-16T17:00:34.741Z,20.47
2023-04-16T17:03:04.663Z,20.47
2023-04-16T17:05:34.434Z,20.53
2023-04-16T17:08:04.256Z,20.52
2023-04-16T17:10:33.926Z,20.51
2023-04-16T17:13:03.857Z,20.46
2023-04-16T17:15:33.464Z,20.50
2023-04-16T17:18:03.181Z,20.52
2023-04-16T17:20:34.044Z,20.51
2023-04-16T17:23:03.709Z,20.39
2023-04-16T17:25:33.306Z,20.47
2023-04-16T17:28:03.059Z,20.47
2023-04-16T17:30:33.520Z,20.52
2023-04-16T17:33:05.840Z,20.46
2023-04-16T17:35:35.633Z,20.52
2023-04-16T17:38:05.416Z,20.50
2023-04-16T17:40:35.080Z,20.47
2023-04-16T17:43:04.813Z,20.45
2023-04-16T17:45:35.769Z,20.45
2023-04-16T17:48:05.542Z,20.42
2023-04-16T17:50:36.065Z,20.43
2023-04-16T17:53:07.248Z,20.42
2023-04-16T17:55:37.292Z,20.49
2023-04-16T17:58:07.026Z,20.48
2023-04-16T18:00:36.650Z,20.43
2023-04-16T18:03:06.646Z,20.60
2023-04-16T18:05:36.656Z,20.57
2023-04-16T18:08:06.486Z,20.62
2023-04-16T18:10:36.396Z,20.71
2023-04-16T18:13:06.008Z,20.62
2023-04-16T18:15:39.754Z,20.60
2023-04-16T18:18:09.782Z,20.61
2023-04-16T18:20:39.626Z,20.62
2023-04-16T18:23:09.231Z,20.69
2023-04-16T18:28:09.533Z,20.76
2023-04-16T18:30:40.402Z,20.60
2023-04-16T18:35:42.940Z,20.59
2023-04-16T18:38:12.599Z,20.55
2023-04-16T18:40:43.157Z,20.54
2023-04-16T18:43:12.802Z,20.55
2023-04-16T18:45:43.170Z,20.61
2023-04-16T18:48:12.942Z,20.53
2023-04-16T18:50:42.600Z,20.70
2023-04-16T18:53:12.429Z,20.55
2023-04-16T18:55:42.363Z,20.54
2023-04-16T18:58:12.455Z,20.59
2023-04-16T19:00:42.406Z,20.57
2023-04-16T19:03:12.108Z,20.57
2023-04-16T19:05:41.754Z,20.54
2023-04-16T19:08:11.416Z,20.56
2023-04-16T19:10:41.107Z,20.54
2023-04-16T19:13:10.740Z,20.61
2023-04-16T19:15:40.419Z,20.58
2023-04-16T19:18:10.053Z,20.56
2023-04-16T19:20:39.885Z,20.68
2023-04-16T19:23:10.781Z,20.60
2023-04-16T19:25:40.948Z,20.62
2023-04-16T19:28:10.607Z,20.59
2023-04-16T19:30:41.821Z,20.60
2023-04-16T19:33:11.509Z,20.58
2023-04-16T19:35:41.180Z,20.61
2023-04-16T19:38:11.302Z,20.57
2023-04-16T19:40:41.548Z,20.50
2023-04-16T19:43:11.204Z,20.55
2023-04-16T19:45:47.799Z,20.57
2023-04-16T19:48:17.641Z,20.51
2023-04-16T19:50:47.333Z,20.54
2023-04-16T19:53:18.735Z,20.49
2023-04-16T19:55:48.414Z,20.60
2023-04-16T19:58:18.285Z,20.51
2023-04-16T20:00:48.875Z,20.52
2023-04-16T20:03:18.639Z,20.56
2023-04-16T20:05:51.380Z,20.52
2023-04-16T20:08:21.012Z,20.45
2023-04-16T20:10:50.730Z,20.48
2023-04-16T20:13:20.357Z,20.45
2023-04-16T20:15:53.416Z,20.42
2023-04-16T20:18:23.750Z,20.44
2023-04-16T20:20:53.350Z,20.50
2023-04-16T20:23:23.161Z,20.52
2023-04-16T20:25:53.903Z,20.46
2023-04-16T20:28:23.470Z,20.46
2023-04-16T20:30:53.329Z,20.41
2023-04-16T20:33:23.033Z,20.43
2023-04-16T20:35:53.788Z,20.47
2023-04-16T20:38:25.198Z,20.47
2023-04-16T20:41:07.692Z,20.48
2023-04-16T20:43:39.806Z,20.38
2023-04-16T20:46:10.225Z,20.43
2023-04-16T20:48:42.808Z,20.38
2023-04-16T20:51:12.467Z,20.46
2023-04-16T20:53:42.276Z,20.42
2023-04-16T20:56:16.153Z,20.39
2023-04-16T20:58:45.843Z,20.38
2023-04-16T21:01:15.591Z,20.45
2023-04-16T21:03:45.551Z,20.36
2023-04-16T21:06:19.177Z,20.39
2023-04-16T21:08:48.792Z,20.36
2023-04-16T21:11:18.451Z,20.35
2023-04-16T21:13:48.371Z,20.37
2023-04-16T21:16:18.157Z,20.35
2023-04-16T21:18:47.886Z,20.30
2023-04-16T21:21:17.699Z,20.36
2023-04-16T21:23:47.458Z,20.33
2023-04-16T21:26:17.193Z,20.33
2023-04-16T21:28:46.992Z,20.30
2023-04-16T21:31:16.706Z,20.30
2023-04-16T21:33:46.410Z,20.26
2023-04-16T21:36:16.069Z,20.35
2023-04-16T21:38:45.753Z,20.31
2023-04-16T21:41:15.390Z,20.26
2023-04-16T21:43:45.053Z,20.30
2023-04-16T21:46:14.798Z,20.27
2023-04-16T21:48:44.497Z,20.31
2023-04-16T21:51:15.604Z,20.32
2023-04-16T21:53:45.272Z,20.33
2023-04-16T21:56:14.984Z,20.30
2023-04-16T21:58:44.607Z,20.34
2023-04-16T22:01:14.283Z,20.32
2023-04-16T22:03:44.223Z,20.30
2023-04-16T22:06:14.815Z,20.29
2023-04-16T22:08:44.526Z,20.31
2023-04-16T22:11:14.188Z,20.36
2023-04-16T22:13:43.946Z,20.32
2023-04-16T22:16:13.885Z,20.23
2023-04-16T22:18:44.344Z,20.35
2023-04-16T22:21:14.055Z,20.37
2023-04-16T22:23:43.746Z,20.35
2023-04-16T22:26:14.392Z,20.28
2023-04-16T22:28:44.062Z,20.31
2023-04-16T22:31:13.724Z,20.33
2023-04-16T22:33:43.350Z,20.33
2023-04-16T22:36:13.029Z,20.38
2023-04-16T22:38:43.005Z,20.46
2023-04-16T22:41:12.675Z,20.60
2023-04-16T22:43:42.882Z,20.57
2023-04-16T22:46:12.897Z,20.57
2023-04-16T22:48:42.600Z,20.63
2023-04-16T22:51:12.446Z,20.72
2023-04-16T22:53:43.961Z,20.86
2023-04-16T22:56:13.989Z,20.77
2023-04-16T22:58:44.489Z,20.97
2023-04-16T23:01:14.509Z,20.90
2023-04-16T23:03:44.438Z,20.90
2023-04-16T23:06:14.197Z,20.84
2023-04-16T23:08:43.947Z,20.96
2023-04-16T23:11:13.592Z,20.95
2023-04-16T23:13:44.345Z,20.97
2023-04-16T23:16:14.161Z,21.02
2023-04-16T23:18:44.013Z,20.92
2023-04-16T23:21:13.709Z,20.91
2023-04-16T23:23:43.487Z,21.04
2023-04-16T23:26:13.173Z,21.02
2023-04-16T23:28:42.855Z,21.11
2023-04-16T23:31:12.635Z,21.15
2023-04-16T23:33:42.252Z,21.17
2023-04-16T23:36:12.221Z,21.14
2023-04-16T23:38:41.920Z,21.21
2023-04-16T23:41:11.530Z,21.22
2023-04-16T23:43:42.286Z,21.22
2023-04-16T23:46:11.970Z,21.25
2023-04-16T23:48:41.683Z,21.31
2023-04-16T23:51:11.358Z,21.27
2023-04-16T23:53:42.296Z,21.35
2023-04-16T23:56:14.864Z,21.27
2023-04-16T23:58:44.522Z,21.37
